Time,TemperatureF,DewpointF,PressureIn,WindDirection,WindDirectionDegrees,WindSpeedMPH,WindSpeedGustMPH,Humidity,HourlyPrecipIn,Conditions,Clouds,dailyrainin,SoftwareType,DateUTC
2013-06-11 00:00:00,68.2,66.7,29.80,NE,49,5.0,5.0,95,0.20,,,0.00,VWS V14.01,2013-06-11 04:00:00,
2013-06-11 00:01:00,68.2,66.7,29.80,NE,49,5.0,5.0,95,0.20,,,0.00,VWS V14.01,2013-06-11 04:01:00,
2013-06-11 00:06:00,68.2,66.7,29.80,NE,51,0.0,7.0,95,0.20,,,0.00,VWS V14.01,2013-06-11 04:06:00,
2013-06-11 00:11:00,68.2,66.7,29.80,NE,51,5.0,7.0,95,0.20,,,0.00,VWS V14.01,2013-06-11 04:11:00,
2013-06-11 00:15:00,68.2,66.7,29.80,NE,51,4.0,7.0,95,0.20,,,0.00,VWS V14.01,2013-06-11 04:15:00,
2013-06-11 00:16:00,68.2,66.7,29.80,NE,51,0.0,4.0,95,0.17,,,0.00,VWS V14.01,2013-06-11 04:16:00,
2013-06-11 00:21:00,68.0,66.5,29.80,NE,51,1.0,6.0,95,0.17,,,0.00,VWS V14.01,2013-06-11 04:21:00,
2013-06-11 00:26:00,67.8,66.3,29.80,NE,51,0.0,6.0,95,0.17,,,0.00,VWS V14.01,2013-06-11 04:26:00,
2013-06-11 00:30:00,67.7,66.2,29.79,NE,51,0.0,6.0,95,0.17,,,0.00,VWS V14.01,2013-06-11 04:30:00,
2013-06-11 00:31:00,67.7,66.2,29.79,NE,51,0.0,0.0,95,0.03,,,0.00,VWS V14.01,2013-06-11 04:31:00,
2013-06-11 00:36:00,67.5,66.0,29.79,NE,51,0.0,0.0,95,0.03,,,0.00,VWS V14.01,2013-06-11 04:36:00,
2013-06-11 00:41:00,67.5,66.0,29.79,NE,51,0.0,1.0,95,0.03,,,0.00,VWS V14.01,2013-06-11 04:41:00,
2013-06-11 00:45:00,67.5,66.0,29.78,NE,51,0.0,1.0,95,0.03,,,0.00,VWS V14.01,2013-06-11 04:45:00,
2013-06-11 00:46:00,67.5,66.0,29.78,NE,51,0.0,0.0,95,0.01,,,0.00,VWS V14.01,2013-06-11 04:46:00,
2013-06-11 00:51:00,67.5,66.0,29.78,NE,51,0.0,0.0,95,0.01,,,0.00,VWS V14.01,2013-06-11 04:51:00,
2013-06-11 00:56:00,67.5,66.0,29.78,NE,51,0.0,1.0,95,0.01,,,0.00,VWS V14.01,2013-06-11 04:56:00,
2013-06-11 01:00:00,67.7,66.2,29.78,NE,51,0.0,2.0,95,0.01,,,0.00,VWS V14.01,2013-06-11 05:00:00,
2013-06-11 01:01:00,67.7,66.2,29.78,NE,50,0.0,0.0,95,0.00,,,0.00,VWS V14.01,2013-06-11 05:01:00,
2013-06-11 01:06:00,67.7,66.2,29.78,NE,51,0.0,0.0,95,0.00,,,0.00,VWS V14.01,2013-06-11 05:06:00,
2013-06-11 01:11:00,67.8,66.3,29.78,NE,51,0.0,0.0,95,0.00,,,0.00,VWS V14.01,2013-06-11 05:11:00,
2013-06-11 01:15:00,67.8,66.3,29.78,NE,51,0.0,0.0,95,0.00,,,0.00,VWS V14.01,2013-06-11 05:15:00,
2013-06-11 01:16:00,67.8,66.3,29.78,NE,51,0.0,0.0,95,0.00,,,0.00,VWS V14.01,2013-06-11 05:16:00,
2013-06-11 01:21:00,67.8,66.3,29.78,NE,51,0.0,0.0,95,0.00,,,0.00,VWS V14.01,2013-06-11 05:21:00,
2013-06-11 01:26:00,67.8,66.3,29.78,NE,51,0.0,0.0,95,0.00,,,0.00,VWS V14.01,2013-06-11 05:26:00,
2013-06-11 01:30:00,67.8,66.3,29.76,NE,51,0.0,0.0,95,0.00,,,0.00,VWS V14.01,2013-06-11 05:30:00,
2013-06-11 01:31:00,67.8,66.3,29.76,NE,51,0.0,1.0,95,0.00,,,0.00,VWS V14.01,2013-06-11 05:31:00,
2013-06-11 01:36:00,67.8,66.3,29.76,NE,51,0.0,1.0,95,0.00,,,0.00,VWS V14.01,2013-06-11 05:36:00,
2013-06-11 01:40:00,67.8,66.3,29.76,NE,51,0.0,1.0,95,0.00,,,0.00,VWS V14.01,2013-06-11 05:40:00,
2013-06-11 01:45:00,67.8,66.3,29.75,NE,51,0.0,0.0,95,0.00,,,0.00,VWS V14.01,2013-06-11 05:45:00,
2013-06-11 01:50:00,67.8,66.6,29.75,NE,51,0.0,0.0,96,0.00,,,0.00,VWS V14.01,2013-06-11 05:50:00,
2013-06-11 01:55:00,67.8,66.6,29.75,NE,51,0.0,1.0,96,0.01,,,0.01,VWS V14.01,2013-06-11 05:55:00,
2013-06-11 02:00:00,67.7,66.2,29.74,NE,51,0.0,0.0,95,0.01,,,0.01,VWS V14.01,2013-06-11 06:00:00,
2013-06-11 02:05:00,67.2,65.7,29.74,West,264,2.0,6.0,95,0.01,,,0.01,VWS V14.01,2013-06-11 06:05:00,
2013-06-11 02:10:00,66.5,65.0,29.74,West,274,2.0,6.0,95,0.02,,,0.02,VWS V14.01,2013-06-11 06:10:00,
2013-06-11 02:15:00,66.2,64.7,29.75,WSW,249,3.0,6.0,95,0.04,,,0.04,VWS V14.01,2013-06-11 06:15:00,
2013-06-11 02:20:00,65.9,64.4,29.75,WSW,249,0.0,6.0,95,0.05,,,0.05,VWS V14.01,2013-06-11 06:20:00,
2013-06-11 02:25:00,65.9,64.4,29.75,WSW,249,0.0,6.0,95,0.05,,,0.05,VWS V14.01,2013-06-11 06:25:00,
2013-06-11 02:30:00,65.9,64.4,29.74,WSW,249,0.0,0.0,95,0.05,,,0.05,VWS V14.01,2013-06-11 06:30:00,
2013-06-11 02:35:00,65.7,64.2,29.74,WSW,249,0.0,0.0,95,0.05,,,0.05,VWS V14.01,2013-06-11 06:35:00,
2013-06-11 02:40:00,65.7,64.2,29.74,WSW,249,0.0,0.0,95,0.05,,,0.05,VWS V14.01,2013-06-11 06:40:00,
2013-06-11 02:45:00,65.7,64.2,29.74,WSW,249,0.0,0.0,95,0.05,,,0.05,VWS V14.01,2013-06-11 06:45:00,
2013-06-11 02:50:00,65.5,64.0,29.74,WSW,249,0.0,0.0,95,0.05,,,0.05,VWS V14.01,2013-06-11 06:50:00,
2013-06-11 02:55:00,65.5,64.0,29.74,WSW,249,0.0,0.0,95,0.05,,,0.05,VWS V14.01,2013-06-11 06:55:00,
2013-06-11 03:00:00,65.5,64.0,29.75,WSW,249,0.0,0.0,95,0.04,,,0.05,VWS V14.01,2013-06-11 07:00:00,
2013-06-11 03:05:00,65.5,64.0,29.75,WSW,249,0.0,0.0,95,0.04,,,0.05,VWS V14.01,2013-06-11 07:05:00,
2013-06-11 03:10:00,65.5,64.0,29.75,WSW,249,0.0,0.0,95,0.04,,,0.05,VWS V14.01,2013-06-11 07:10:00,
2013-06-11 03:15:00,65.5,64.0,29.74,WSW,249,0.0,0.0,95,0.02,,,0.05,VWS V14.01,2013-06-11 07:15:00,
2013-06-11 03:20:00,66.3,65.1,29.74,West,280,0.0,1.0,96,0.02,,,0.05,VWS V14.01,2013-06-11 07:20:00,
2013-06-11 03:25:00,66.8,65.6,29.74,West,281,0.0,1.0,96,0.02,,,0.05,VWS V14.01,2013-06-11 07:25:00,
2013-06-11 03:30:00,66.8,65.6,29.74,West,281,0.0,0.0,96,0.00,,,0.05,VWS V14.01,2013-06-11 07:30:00,
2013-06-11 03:35:00,66.7,65.5,29.74,West,281,0.0,1.0,96,0.00,,,0.05,VWS V14.01,2013-06-11 07:35:00,
2013-06-11 03:40:00,66.5,65.3,29.74,West,281,0.0,1.0,96,0.00,,,0.05,VWS V14.01,2013-06-11 07:40:00,
2013-06-11 03:45:00,66.5,65.3,29.74,West,281,0.0,0.0,96,0.01,,,0.06,VWS V14.01,2013-06-11 07:45:00,
2013-06-11 03:50:00,66.3,65.1,29.74,West,281,0.0,4.0,96,0.01,,,0.06,VWS V14.01,2013-06-11 07:50:00,
2013-06-11 03:55:00,66.3,65.1,29.74,West,281,0.0,4.0,96,0.01,,,0.06,VWS V14.01,2013-06-11 07:55:00,
2013-06-11 04:00:00,66.3,65.1,29.74,West,281,0.0,0.0,96,0.01,,,0.06,VWS V14.01,2013-06-11 08:00:00,
2013-06-11 04:05:00,66.3,65.1,29.74,West,281,0.0,0.0,96,0.01,,,0.06,VWS V14.01,2013-06-11 08:05:00,
2013-06-11 04:10:00,66.5,65.3,29.74,West,281,0.0,1.0,96,0.01,,,0.06,VWS V14.01,2013-06-11 08:10:00,
2013-06-11 04:15:00,66.7,65.5,29.74,West,270,5.0,6.0,96,0.01,,,0.06,VWS V14.01,2013-06-11 08:15:00,
2013-06-11 04:20:00,67.0,65.8,29.74,West,274,0.0,7.0,96,0.01,,,0.06,VWS V14.01,2013-06-11 08:20:00,
2013-06-11 04:25:00,67.5,66.6,29.74,West,268,3.0,8.0,97,0.01,,,0.06,VWS V14.01,2013-06-11 08:25:00,
2013-06-11 04:30:00,67.5,66.3,29.74,NW,304,0.0,0.0,96,0.01,,,0.06,VWS V14.01,2013-06-11 08:30:00,
2013-06-11 04:35:00,67.0,65.8,29.74,NW,323,0.0,4.0,96,0.01,,,0.06,VWS V14.01,2013-06-11 08:35:00,
2013-06-11 04:40:00,66.7,65.5,29.74,NW,323,0.0,4.0,96,0.01,,,0.06,VWS V14.01,2013-06-11 08:40:00,
2013-06-11 04:45:00,66.7,65.5,29.74,NW,323,0.0,0.0,96,0.01,,,0.06,VWS V14.01,2013-06-11 08:45:00,
2013-06-11 04:50:00,66.8,65.6,29.74,SSW,204,4.0,7.0,96,0.01,,,0.06,VWS V14.01,2013-06-11 08:50:00,
2013-06-11 04:55:00,67.3,66.4,29.74,SW,234,6.0,8.0,97,0.01,,,0.06,VWS V14.01,2013-06-11 08:55:00,
2013-06-11 05:00:00,67.7,66.8,29.74,West,264,6.0,6.0,97,0.00,,,0.06,VWS V14.01,2013-06-11 09:00:00,
2013-06-11 05:05:00,67.8,66.6,29.74,WSW,248,5.0,8.0,96,0.00,,,0.06,VWS V14.01,2013-06-11 09:05:00,
2013-06-11 05:10:00,67.8,66.6,29.74,West,279,4.0,8.0,96,0.00,,,0.06,VWS V14.01,2013-06-11 09:10:00,
2013-06-11 05:15:00,67.7,66.5,29.74,WSW,246,5.0,7.0,96,0.00,,,0.06,VWS V14.01,2013-06-11 09:15:00,
2013-06-11 05:20:00,67.5,66.3,29.74,WSW,248,8.0,9.0,96,0.00,,,0.06,VWS V14.01,2013-06-11 09:20:00,
2013-06-11 05:25:00,67.5,66.3,29.74,West,274,5.0,9.0,96,0.00,,,0.06,VWS V14.01,2013-06-11 09:25:00,
2013-06-11 05:30:00,67.5,66.3,29.75,West,267,4.0,10.0,96,0.00,,,0.06,VWS V14.01,2013-06-11 09:30:00,
2013-06-11 05:35:00,67.5,66.3,29.75,SW,222,4.0,10.0,96,0.00,,,0.06,VWS V14.01,2013-06-11 09:35:00,
2013-06-11 05:40:00,67.5,66.3,29.75,WSW,258,8.0,10.0,96,0.00,,,0.06,VWS V14.01,2013-06-11 09:40:00,
2013-06-11 05:45:00,67.3,65.8,29.75,SW,230,7.0,8.0,95,0.00,,,0.06,VWS V14.01,2013-06-11 09:45:00,
2013-06-11 05:50:00,67.3,65.8,29.75,WSW,250,6.0,8.0,95,0.00,,,0.06,VWS V14.01,2013-06-11 09:50:00,
2013-06-11 05:55:00,67.2,65.7,29.75,West,281,4.0,8.0,95,0.00,,,0.06,VWS V14.01,2013-06-11 09:55:00,
2013-06-11 06:00:00,67.2,65.7,29.75,WSW,238,3.0,5.0,95,0.00,,,0.06,VWS V14.01,2013-06-11 10:00:00,
2013-06-11 06:05:00,67.2,65.7,29.75,West,275,3.0,6.0,95,0.00,,,0.06,VWS V14.01,2013-06-11 10:05:00,
2013-06-11 06:10:00,67.2,65.7,29.75,WSW,244,7.0,10.0,95,0.00,,,0.06,VWS V14.01,2013-06-11 10:10:00,
2013-06-11 06:15:00,67.2,65.7,29.75,WSW,241,2.0,4.0,95,0.00,,,0.06,VWS V14.01,2013-06-11 10:15:00,
2013-06-11 06:20:00,67.0,65.5,29.75,West,271,5.0,7.0,95,0.00,,,0.06,VWS V14.01,2013-06-11 10:20:00,
2013-06-11 06:25:00,67.0,65.5,29.75,West,278,2.0,10.0,95,0.00,,,0.06,VWS V14.01,2013-06-11 10:25:00,
2013-06-11 06:30:00,67.0,65.5,29.75,SW,235,0.0,0.0,95,0.00,,,0.06,VWS V14.01,2013-06-11 10:30:00,
2013-06-11 06:35:00,67.0,65.5,29.75,West,264,2.0,6.0,95,0.00,,,0.06,VWS V14.01,2013-06-11 10:35:00,
2013-06-11 06:40:00,67.0,65.5,29.75,SW,225,3.0,7.0,95,0.00,,,0.06,VWS V14.01,2013-06-11 10:40:00,
2013-06-11 06:45:00,67.0,65.5,29.75,WSW,241,0.0,0.0,95,0.00,,,0.06,VWS V14.01,2013-06-11 10:45:00,
2013-06-11 06:50:00,67.0,65.5,29.75,SW,228,5.0,9.0,95,0.00,,,0.06,VWS V14.01,2013-06-11 10:50:00,
2013-06-11 06:55:00,67.0,65.5,29.75,SW,223,0.0,9.0,95,0.00,,,0.06,VWS V14.01,2013-06-11 10:55:00,
2013-06-11 07:00:00,67.0,65.5,29.75,West,272,4.0,4.0,95,0.00,,,0.06,VWS V14.01,2013-06-11 11:00:00,
2013-06-11 07:05:00,67.2,65.7,29.75,SW,236,6.0,9.0,95,0.00,,,0.06,VWS V14.01,2013-06-11 11:05:00,
2013-06-11 07:10:00,67.2,65.7,29.75,SW,227,9.0,9.0,95,0.00,,,0.06,VWS V14.01,2013-06-11 11:10:00,
2013-06-11 07:15:00,67.3,65.5,29.76,WSW,257,2.0,6.0,94,0.00,,,0.06,VWS V14.01,2013-06-11 11:15:00,
2013-06-11 07:20:00,67.3,65.5,29.76,West,259,6.0,9.0,94,0.00,,,0.06,VWS V14.01,2013-06-11 11:20:00,
2013-06-11 07:25:00,67.5,65.7,29.76,West,277,0.0,9.0,94,0.00,,,0.06,VWS V14.01,2013-06-11 11:25:00,
2013-06-11 07:30:00,67.5,65.4,29.76,SW,236,4.0,6.0,93,0.00,,,0.06,VWS V14.01,2013-06-11 11:30:00,
2013-06-11 07:35:00,67.7,65.3,29.76,WNW,288,0.0,6.0,92,0.00,,,0.06,VWS V14.01,2013-06-11 11:35:00,
2013-06-11 07:40:00,67.8,65.1,29.76,WSW,254,0.0,8.0,91,0.00,,,0.06,VWS V14.01,2013-06-11 11:40:00,
2013-06-11 07:45:00,68.0,65.0,29.76,SW,232,0.0,6.0,90,0.00,,,0.06,VWS V14.01,2013-06-11 11:45:00,
2013-06-11 07:50:00,68.3,65.3,29.76,WSW,252,4.0,8.0,90,0.00,,,0.06,VWS V14.01,2013-06-11 11:50:00,
2013-06-11 07:55:00,68.5,65.1,29.76,WSW,250,6.0,9.0,89,0.00,,,0.06,VWS V14.01,2013-06-11 11:55:00,
2013-06-11 08:00:00,68.3,64.6,29.77,WSW,245,5.0,5.0,88,0.00,,,0.06,VWS V14.01,2013-06-11 12:00:00,
2013-06-11 08:05:00,68.3,64.6,29.77,West,260,5.0,6.0,88,0.00,,,0.06,VWS V14.01,2013-06-11 12:05:00,
2013-06-11 08:10:00,68.3,64.6,29.77,SW,228,4.0,12.0,88,0.00,,,0.06,VWS V14.01,2013-06-11 12:10:00,
2013-06-11 08:15:00,68.5,64.5,29.76,SW,227,4.0,6.0,87,0.00,,,0.06,VWS V14.01,2013-06-11 12:15:00,
2013-06-11 08:20:00,68.8,64.4,29.76,SW,230,6.0,9.0,86,0.00,,,0.06,VWS V14.01,2013-06-11 12:20:00,
2013-06-11 08:25:00,68.8,64.4,29.76,West,265,7.0,9.0,86,0.00,,,0.06,VWS V14.01,2013-06-11 12:25:00,
2013-06-11 08:30:00,68.8,64.1,29.76,West,264,3.0,5.0,85,0.00,,,0.06,VWS V14.01,2013-06-11 12:30:00,
2013-06-11 08:35:00,68.7,64.0,29.76,WSW,256,5.0,10.0,85,0.00,,,0.06,VWS V14.01,2013-06-11 12:35:00,
2013-06-11 08:40:00,68.8,64.1,29.76,West,270,8.0,12.0,85,0.00,,,0.06,VWS V14.01,2013-06-11 12:40:00,
2013-06-11 08:45:00,69.0,64.3,29.76,WSW,254,6.0,7.0,85,0.00,,,0.06,VWS V14.01,2013-06-11 12:45:00,
2013-06-11 08:50:00,69.0,64.0,29.76,West,279,11.0,12.0,84,0.00,,,0.06,VWS V14.01,2013-06-11 12:50:00,
2013-06-11 08:55:00,69.0,64.3,29.76,SW,222,8.0,14.0,85,0.00,,,0.06,VWS V14.01,2013-06-11 12:55:00,
2013-06-11 09:00:00,68.8,63.8,29.77,WSW,257,5.0,8.0,84,0.00,,,0.06,VWS V14.01,2013-06-11 13:00:00,
2013-06-11 09:05:00,69.2,64.2,29.77,WNW,298,4.0,9.0,84,0.00,,,0.06,VWS V14.01,2013-06-11 13:05:00,
2013-06-11 09:10:00,69.3,63.9,29.77,West,262,5.0,12.0,83,0.00,,,0.06,VWS V14.01,2013-06-11 13:10:00,
2013-06-11 09:15:00,69.3,63.9,29.77,West,267,8.0,10.0,83,0.00,,,0.06,VWS V14.01,2013-06-11 13:15:00,
2013-06-11 09:20:00,69.3,63.9,29.77,WSW,257,2.0,10.0,83,0.00,,,0.06,VWS V14.01,2013-06-11 13:20:00,
2013-06-11 09:25:00,69.3,63.6,29.77,WSW,240,9.0,11.0,82,0.00,,,0.06,VWS V14.01,2013-06-11 13:25:00,
2013-06-11 09:30:00,69.3,63.6,29.76,West,263,7.0,8.0,82,0.00,,,0.06,VWS V14.01,2013-06-11 13:30:00,
2013-06-11 09:35:00,69.3,63.6,29.76,WSW,237,7.0,12.0,82,0.00,,,0.06,VWS V14.01,2013-06-11 13:35:00,
2013-06-11 09:40:00,69.7,63.6,29.76,West,267,0.0,12.0,81,0.00,,,0.06,VWS V14.01,2013-06-11 13:40:00,
2013-06-11 09:45:00,70.2,63.8,29.75,SW,221,9.0,9.0,80,0.00,,,0.06,VWS V14.01,2013-06-11 13:45:00,
2013-06-11 09:50:00,70.7,64.2,29.75,SW,233,6.0,13.0,80,0.00,,,0.06,VWS V14.01,2013-06-11 13:50:00,
2013-06-11 09:55:00,71.7,64.5,29.75,WSW,238,6.0,14.0,78,0.00,,,0.06,VWS V14.01,2013-06-11 13:55:00,
2013-06-11 09:59:00,71.5,63.5,29.75,WSW,254,2.0,6.0,76,0.00,,,0.06,VWS V14.01,2013-06-11 13:59:00,
2013-06-11 10:00:00,71.5,63.5,29.75,WNW,285,3.0,14.0,76,0.00,,,0.06,VWS V14.01,2013-06-11 14:00:00,
2013-06-11 10:04:00,71.7,63.7,29.75,West,277,6.0,9.0,76,0.00,,,0.06,VWS V14.01,2013-06-11 14:04:00,
2013-06-11 10:09:00,71.4,62.7,29.75,WSW,248,14.0,15.0,74,0.00,,,0.06,VWS V14.01,2013-06-11 14:09:00,
2013-06-11 10:14:00,71.0,62.7,29.75,SW,215,8.0,10.0,75,0.00,,,0.06,VWS V14.01,2013-06-11 14:14:00,
2013-06-11 10:15:00,71.0,63.1,29.75,WNW,295,8.0,15.0,76,0.00,,,0.06,VWS V14.01,2013-06-11 14:15:00,
2013-06-11 10:19:00,70.8,61.7,29.75,WNW,302,7.0,16.0,73,0.00,,,0.06,VWS V14.01,2013-06-11 14:19:00,
2013-06-11 10:24:00,71.4,61.9,29.75,West,271,15.0,18.0,72,0.00,,,0.06,VWS V14.01,2013-06-11 14:24:00,
2013-06-11 10:29:00,71.7,62.6,29.74,NW,317,9.0,9.0,73,0.00,,,0.06,VWS V14.01,2013-06-11 14:29:00,
2013-06-11 10:30:00,71.9,62.8,29.74,West,259,9.0,18.0,73,0.00,,,0.06,VWS V14.01,2013-06-11 14:30:00,
2013-06-11 10:34:00,72.0,62.5,29.74,West,268,13.0,16.0,72,0.00,,,0.06,VWS V14.01,2013-06-11 14:34:00,
2013-06-11 10:39:00,72.4,62.5,29.74,WNW,286,7.0,16.0,71,0.00,,,0.06,VWS V14.01,2013-06-11 14:39:00,
2013-06-11 10:44:00,72.0,62.9,29.74,SSW,207,7.0,10.0,73,0.00,,,0.06,VWS V14.01,2013-06-11 14:44:00,
2013-06-11 10:45:00,72.0,62.9,29.74,SW,231,10.0,16.0,73,0.00,,,0.06,VWS V14.01,2013-06-11 14:45:00,
2013-06-11 10:49:00,72.4,62.9,29.74,SW,222,2.0,14.0,72,0.00,,,0.06,VWS V14.01,2013-06-11 14:49:00,
2013-06-11 10:54:00,72.6,62.7,29.74,West,273,9.0,14.0,71,0.00,,,0.06,VWS V14.01,2013-06-11 14:54:00,
2013-06-11 10:59:00,72.7,63.2,29.74,West,272,2.0,2.0,72,0.00,,,0.06,VWS V14.01,2013-06-11 14:59:00,
2013-06-11 11:00:00,72.7,63.2,29.74,WSW,238,0.0,14.0,72,0.00,,,0.06,VWS V14.01,2013-06-11 15:00:00,
2013-06-11 11:04:00,72.4,62.5,29.74,West,270,8.0,13.0,71,0.00,,,0.06,VWS V14.01,2013-06-11 15:04:00,
2013-06-11 11:09:00,72.0,62.5,29.74,SSW,204,7.0,13.0,72,0.00,,,0.06,VWS V14.01,2013-06-11 15:09:00,
2013-06-11 11:14:00,72.0,62.5,29.74,West,261,10.0,10.0,72,0.00,,,0.06,VWS V14.01,2013-06-11 15:14:00,
2013-06-11 11:15:00,72.0,62.5,29.74,SW,229,1.0,14.0,72,0.00,,,0.06,VWS V14.01,2013-06-11 15:15:00,
2013-06-11 11:19:00,72.7,62.4,29.74,West,262,7.0,14.0,70,0.00,,,0.06,VWS V14.01,2013-06-11 15:19:00,
2013-06-11 11:24:00,72.6,62.3,29.74,WSW,240,0.0,14.0,70,0.00,,,0.06,VWS V14.01,2013-06-11 15:24:00,
2013-06-11 11:29:00,72.9,63.0,29.74,West,275,7.0,7.0,71,0.00,,,0.06,VWS V14.01,2013-06-11 15:29:00,
2013-06-11 11:30:00,72.9,63.0,29.74,West,269,6.0,14.0,71,0.00,,,0.06,VWS V14.01,2013-06-11 15:30:00,
2013-06-11 11:34:00,72.6,62.3,29.74,WSW,250,4.0,14.0,70,0.00,,,0.06,VWS V14.01,2013-06-11 15:34:00,
2013-06-11 11:39:00,72.9,62.5,29.74,SW,225,1.0,14.0,70,0.00,,,0.06,VWS V14.01,2013-06-11 15:39:00,
2013-06-11 11:44:00,73.4,63.0,29.74,WSW,248,5.0,7.0,70,0.00,,,0.06,VWS V14.01,2013-06-11 15:44:00,
2013-06-11 11:45:00,73.4,63.0,29.74,WSW,250,7.0,14.0,70,0.00,,,0.06,VWS V14.01,2013-06-11 15:45:00,
2013-06-11 11:49:00,73.4,62.6,29.74,WSW,240,7.0,9.0,69,0.00,,,0.06,VWS V14.01,2013-06-11 15:49:00,
2013-06-11 11:54:00,73.8,63.0,29.74,West,267,12.0,19.0,69,0.00,,,0.06,VWS V14.01,2013-06-11 15:54:00,
2013-06-11 11:59:00,74.1,62.9,29.73,West,277,9.0,19.0,68,0.00,,,0.06,VWS V14.01,2013-06-11 15:59:00,
2013-06-11 12:00:00,74.1,62.9,29.73,West,277,9.0,19.0,68,0.00,,,0.06,VWS V14.01,2013-06-11 16:00:00,
2013-06-11 12:04:00,74.1,62.9,29.73,West,277,9.0,15.0,68,0.00,,,0.06,VWS V14.01,2013-06-11 16:04:00,
2013-06-11 12:09:00,74.5,62.8,29.73,West,260,7.0,15.0,67,0.00,,,0.06,VWS V14.01,2013-06-11 16:09:00,
2013-06-11 12:14:00,74.8,62.3,29.72,SW,217,8.0,16.0,65,0.00,,,0.06,VWS V14.01,2013-06-11 16:14:00,
2013-06-11 12:15:00,74.8,62.3,29.72,SW,217,8.0,16.0,65,0.00,,,0.06,VWS V14.01,2013-06-11 16:15:00,
2013-06-11 12:19:00,74.6,62.9,29.72,West,279,7.0,12.0,67,0.00,,,0.06,VWS V14.01,2013-06-11 16:19:00,
2013-06-11 12:24:00,75.0,62.5,29.72,West,259,14.0,15.0,65,0.00,,,0.06,VWS V14.01,2013-06-11 16:24:00,
2013-06-11 12:29:00,75.2,63.1,29.71,WSW,245,1.0,15.0,66,0.00,,,0.06,VWS V14.01,2013-06-11 16:29:00,
2013-06-11 12:30:00,75.2,63.1,29.71,WSW,245,1.0,15.0,66,0.00,,,0.06,VWS V14.01,2013-06-11 16:30:00,
2013-06-11 12:34:00,75.2,63.5,29.71,WNW,284,7.0,10.0,67,0.00,,,0.06,VWS V14.01,2013-06-11 16:34:00,
2013-06-11 12:39:00,75.0,63.3,29.71,SW,232,5.0,12.0,67,0.00,,,0.06,VWS V14.01,2013-06-11 16:39:00,
2013-06-11 12:44:00,74.6,62.9,29.70,WSW,258,11.0,12.0,67,0.00,,,0.06,VWS V14.01,2013-06-11 16:44:00,
2013-06-11 12:45:00,74.6,62.9,29.70,WSW,258,11.0,12.0,67,0.00,,,0.06,VWS V14.01,2013-06-11 16:45:00,
2013-06-11 12:49:00,74.6,62.5,29.70,WSW,252,10.0,18.0,66,0.00,,,0.06,VWS V14.01,2013-06-11 16:49:00,
2013-06-11 12:54:00,75.0,62.9,29.70,West,270,8.0,18.0,66,0.00,,,0.06,VWS V14.01,2013-06-11 16:54:00,
2013-06-11 12:59:00,75.3,63.2,29.70,WSW,257,13.0,18.0,66,0.00,,,0.06,VWS V14.01,2013-06-11 16:59:00,
2013-06-11 13:00:00,75.3,63.2,29.70,West,270,12.0,18.0,66,0.00,,,0.06,VWS V14.01,2013-06-11 17:00:00,
2013-06-11 13:04:00,75.2,62.6,29.70,WSW,248,7.0,14.0,65,0.00,,,0.06,VWS V14.01,2013-06-11 17:04:00,
2013-06-11 13:09:00,74.8,62.7,29.70,WSW,246,8.0,15.0,66,0.00,,,0.06,VWS V14.01,2013-06-11 17:09:00,
2013-06-11 13:14:00,74.6,62.5,29.70,WSW,245,7.0,20.0,66,0.00,,,0.06,VWS V14.01,2013-06-11 17:14:00,
2013-06-11 13:15:00,74.6,62.5,29.70,WSW,246,7.0,20.0,66,0.00,,,0.06,VWS V14.01,2013-06-11 17:15:00,
2013-06-11 13:19:00,75.0,62.9,29.70,SW,235,12.0,13.0,66,0.00,,,0.06,VWS V14.01,2013-06-11 17:19:00,
2013-06-11 13:24:00,75.0,63.3,29.70,West,272,4.0,14.0,67,0.00,,,0.06,VWS V14.01,2013-06-11 17:24:00,
2013-06-11 13:29:00,74.8,62.7,29.70,WSW,252,13.0,20.0,66,0.00,,,0.06,VWS V14.01,2013-06-11 17:29:00,
2013-06-11 13:30:00,74.8,62.7,29.70,West,263,12.0,20.0,66,0.00,,,0.06,VWS V14.01,2013-06-11 17:30:00,
2013-06-11 13:34:00,74.8,63.1,29.70,WSW,244,4.0,19.0,67,0.00,,,0.06,VWS V14.01,2013-06-11 17:34:00,
2013-06-11 13:39:00,74.8,63.1,29.70,West,275,0.0,19.0,67,0.00,,,0.06,VWS V14.01,2013-06-11 17:39:00,
2013-06-11 13:44:00,74.6,62.5,29.69,WSW,248,8.0,19.0,66,0.00,,,0.06,VWS V14.01,2013-06-11 17:44:00,
2013-06-11 13:45:00,74.6,62.5,29.69,WSW,252,12.0,19.0,66,0.00,,,0.06,VWS V14.01,2013-06-11 17:45:00,
2013-06-11 13:49:00,74.6,62.9,29.69,West,271,9.0,12.0,67,0.00,,,0.06,VWS V14.01,2013-06-11 17:49:00,
2013-06-11 13:54:00,74.3,62.2,29.69,WSW,252,6.0,14.0,66,0.00,,,0.06,VWS V14.01,2013-06-11 17:54:00,
2013-06-11 13:59:00,74.3,62.6,29.70,WSW,243,11.0,20.0,67,0.00,,,0.06,VWS V14.01,2013-06-11 17:59:00,
2013-06-11 14:00:00,74.3,62.6,29.70,West,265,8.0,20.0,67,0.00,,,0.06,VWS V14.01,2013-06-11 18:00:00,
2013-06-11 14:04:00,74.3,62.6,29.70,West,263,4.0,15.0,67,0.00,,,0.06,VWS V14.01,2013-06-11 18:04:00,
2013-06-11 14:09:00,74.5,62.4,29.70,West,280,10.0,15.0,66,0.00,,,0.06,VWS V14.01,2013-06-11 18:09:00,
2013-06-11 14:14:00,74.6,62.5,29.70,WSW,249,9.0,18.0,66,0.00,,,0.06,VWS V14.01,2013-06-11 18:14:00,
2013-06-11 14:15:00,74.6,62.5,29.70,WNW,296,8.0,18.0,66,0.00,,,0.06,VWS V14.01,2013-06-11 18:15:00,
2013-06-11 14:19:00,74.3,61.8,29.70,West,269,5.0,21.0,65,0.00,,,0.06,VWS V14.01,2013-06-11 18:19:00,
2013-06-11 14:24:00,74.1,62.5,29.70,WSW,239,6.0,21.0,67,0.00,,,0.06,VWS V14.01,2013-06-11 18:24:00,
2013-06-11 14:29:00,74.1,62.9,29.69,WSW,257,4.0,21.0,68,0.00,,,0.06,VWS V14.01,2013-06-11 18:29:00,
2013-06-11 14:30:00,74.1,62.9,29.69,West,259,6.0,21.0,68,0.00,,,0.06,VWS V14.01,2013-06-11 18:30:00,
2013-06-11 14:34:00,74.1,62.5,29.69,SW,226,12.0,19.0,67,0.00,,,0.06,VWS V14.01,2013-06-11 18:34:00,
2013-06-11 14:39:00,74.3,62.2,29.69,SW,221,12.0,19.0,66,0.00,,,0.06,VWS V14.01,2013-06-11 18:39:00,
2013-06-11 14:44:00,74.6,62.9,29.69,West,281,10.0,19.0,67,0.00,,,0.06,VWS V14.01,2013-06-11 18:44:00,
2013-06-11 14:45:00,74.6,62.9,29.69,West,261,12.0,19.0,67,0.00,,,0.06,VWS V14.01,2013-06-11 18:45:00,
2013-06-11 14:49:00,74.3,62.6,29.69,WNW,300,7.0,20.0,67,0.00,,,0.06,VWS V14.01,2013-06-11 18:49:00,
2013-06-11 14:54:00,73.9,62.7,29.69,West,265,18.0,21.0,68,0.00,,,0.06,VWS V14.01,2013-06-11 18:54:00,
2013-06-11 14:59:00,73.2,62.8,29.69,WSW,252,6.0,21.0,70,0.00,,,0.06,VWS V14.01,2013-06-11 18:59:00,
2013-06-11 15:00:00,73.2,62.8,29.69,West,273,11.0,21.0,70,0.00,,,0.06,VWS V14.01,2013-06-11 19:00:00,
2013-06-11 15:04:00,72.7,63.2,29.69,West,278,6.0,13.0,72,0.00,,,0.06,VWS V14.01,2013-06-11 19:04:00,
2013-06-11 15:09:00,72.6,63.5,29.69,WSW,246,5.0,13.0,73,0.00,,,0.06,VWS V14.01,2013-06-11 19:09:00,
2013-06-11 15:14:00,72.6,63.5,29.69,SW,226,10.0,13.0,73,0.00,,,0.06,VWS V14.01,2013-06-11 19:14:00,
2013-06-11 15:15:00,72.6,63.5,29.69,WSW,254,8.0,13.0,73,0.00,,,0.06,VWS V14.01,2013-06-11 19:15:00,
2013-06-11 15:19:00,73.2,63.6,29.69,WSW,253,1.0,9.0,72,0.00,,,0.06,VWS V14.01,2013-06-11 19:19:00,
2013-06-11 15:24:00,73.4,63.4,29.69,West,261,9.0,14.0,71,0.00,,,0.06,VWS V14.01,2013-06-11 19:24:00,
2013-06-11 15:29:00,74.3,63.5,29.68,WNW,298,8.0,15.0,69,0.00,,,0.06,VWS V14.01,2013-06-11 19:29:00,
2013-06-11 15:30:00,74.5,63.7,29.68,West,265,8.0,15.0,69,0.00,,,0.06,VWS V14.01,2013-06-11 19:30:00,
2013-06-11 15:34:00,75.3,63.2,29.68,WSW,254,7.0,16.0,66,0.00,,,0.06,VWS V14.01,2013-06-11 19:34:00,
2013-06-11 15:39:00,75.3,63.2,29.68,WNW,286,8.0,21.0,66,0.00,,,0.06,VWS V14.01,2013-06-11 19:39:00,
2013-06-11 15:44:00,75.3,63.2,29.67,SW,234,9.0,21.0,66,0.00,,,0.06,VWS V14.01,2013-06-11 19:44:00,
2013-06-11 15:45:00,75.3,63.2,29.67,West,263,4.0,21.0,66,0.00,,,0.06,VWS V14.01,2013-06-11 19:45:00,
2013-06-11 15:49:00,75.5,63.4,29.67,West,273,11.0,12.0,66,0.00,,,0.06,VWS V14.01,2013-06-11 19:49:00,
2013-06-11 15:54:00,75.5,63.4,29.67,SW,223,8.0,16.0,66,0.00,,,0.06,VWS V14.01,2013-06-11 19:54:00,
2013-06-11 15:59:00,75.2,63.1,29.67,WSW,242,8.0,16.0,66,0.00,,,0.06,VWS V14.01,2013-06-11 19:59:00,
2013-06-11 16:00:00,75.2,63.1,29.67,NW,306,7.0,16.0,66,0.00,,,0.06,VWS V14.01,2013-06-11 20:00:00,
2013-06-11 16:04:00,75.9,64.2,29.67,WSW,244,14.0,21.0,67,0.00,,,0.06,VWS V14.01,2013-06-11 20:04:00,
2013-06-11 16:09:00,75.9,63.3,29.67,WNW,284,7.0,21.0,65,0.00,,,0.06,VWS V14.01,2013-06-11 20:09:00,
2013-06-11 16:14:00,75.9,62.9,29.67,NNE,32,6.0,21.0,64,0.00,,,0.06,VWS V14.01,2013-06-11 20:14:00,
2013-06-11 16:15:00,76.0,62.5,29.67,West,259,13.0,21.0,63,0.00,,,0.06,VWS V14.01,2013-06-11 20:15:00,
2013-06-11 16:19:00,76.4,62.9,29.67,West,277,7.0,13.0,63,0.00,,,0.06,VWS V14.01,2013-06-11 20:19:00,
2013-06-11 16:24:00,76.0,62.5,29.67,WNW,282,10.0,18.0,63,0.00,,,0.06,VWS V14.01,2013-06-11 20:24:00,
2013-06-11 16:29:00,75.7,62.7,29.67,WSW,247,1.0,18.0,64,0.00,,,0.06,VWS V14.01,2013-06-11 20:29:00,
2013-06-11 16:30:00,75.7,62.7,29.67,WNW,286,0.0,18.0,64,0.00,,,0.06,VWS V14.01,2013-06-11 20:30:00,
2013-06-11 16:34:00,75.5,62.5,29.67,West,273,9.0,15.0,64,0.00,,,0.06,VWS V14.01,2013-06-11 20:34:00,
2013-06-11 16:39:00,75.9,62.9,29.67,WNW,292,5.0,15.0,64,0.00,,,0.06,VWS V14.01,2013-06-11 20:39:00,
2013-06-11 16:43:00,75.9,62.9,29.67,West,277,7.0,15.0,64,0.00,,,0.06,VWS V14.01,2013-06-11 20:43:00,
2013-06-11 16:45:00,76.0,63.0,29.67,West,267,0.0,15.0,64,0.00,,,0.06,VWS V14.01,2013-06-11 20:45:00,
2013-06-11 16:48:00,75.9,63.3,29.67,WSW,248,5.0,15.0,65,0.00,,,0.06,VWS V14.01,2013-06-11 20:48:00,
2013-06-11 16:53:00,75.7,63.1,29.67,West,269,6.0,15.0,65,0.00,,,0.06,VWS V14.01,2013-06-11 20:53:00,
2013-06-11 16:58:00,75.5,62.9,29.67,West,271,11.0,15.0,65,0.00,,,0.06,VWS V14.01,2013-06-11 20:58:00,
2013-06-11 17:00:00,75.5,62.9,29.67,WSW,238,5.0,15.0,65,0.00,,,0.06,VWS V14.01,2013-06-11 21:00:00,
2013-06-11 17:03:00,75.5,62.9,29.67,West,272,6.0,12.0,65,0.00,,,0.06,VWS V14.01,2013-06-11 21:03:00,
2013-06-11 17:08:00,75.5,62.5,29.67,West,261,7.0,12.0,64,0.00,,,0.06,VWS V14.01,2013-06-11 21:08:00,
2013-06-11 17:13:00,75.9,62.4,29.67,WSW,254,0.0,18.0,63,0.00,,,0.06,VWS V14.01,2013-06-11 21:13:00,
2013-06-11 17:15:00,76.0,62.5,29.67,WSW,254,0.0,18.0,63,0.00,,,0.06,VWS V14.01,2013-06-11 21:15:00,
2013-06-11 17:18:00,76.9,62.9,29.67,West,275,8.0,16.0,62,0.00,,,0.06,VWS V14.01,2013-06-11 21:18:00,
2013-06-11 17:23:00,76.6,63.1,29.67,WSW,239,6.0,16.0,63,0.00,,,0.06,VWS V14.01,2013-06-11 21:23:00,
2013-06-11 17:28:00,76.0,63.0,29.67,WSW,237,7.0,16.0,64,0.00,,,0.06,VWS V14.01,2013-06-11 21:28:00,
2013-06-11 17:30:00,76.0,63.0,29.67,WSW,244,0.0,16.0,64,0.00,,,0.06,VWS V14.01,2013-06-11 21:30:00,
2013-06-11 17:33:00,76.2,62.7,29.67,WNW,286,8.0,20.0,63,0.00,,,0.06,VWS V14.01,2013-06-11 21:33:00,
2013-06-11 17:38:00,76.4,62.9,29.67,WSW,254,4.0,20.0,63,0.00,,,0.06,VWS V14.01,2013-06-11 21:38:00,
2013-06-11 17:43:00,76.2,62.7,29.67,West,260,11.0,20.0,63,0.00,,,0.06,VWS V14.01,2013-06-11 21:43:00,
2013-06-11 17:45:00,76.2,62.7,29.67,West,273,5.0,20.0,63,0.00,,,0.06,VWS V14.01,2013-06-11 21:45:00,
2013-06-11 17:48:00,75.9,61.5,29.67,West,271,9.0,21.0,61,0.00,,,0.06,VWS V14.01,2013-06-11 21:48:00,
2013-06-11 17:53:00,74.6,62.1,29.67,WSW,250,10.0,21.0,65,0.00,,,0.06,VWS V14.01,2013-06-11 21:53:00,
2013-06-11 17:58:00,73.9,62.3,29.67,West,266,10.0,21.0,67,0.00,,,0.06,VWS V14.01,2013-06-11 21:58:00,
2013-06-11 18:00:00,73.9,62.3,29.67,WSW,248,5.0,21.0,67,0.00,,,0.06,VWS V14.01,2013-06-11 22:00:00,
2013-06-11 18:03:00,73.9,62.7,29.67,West,267,9.0,11.0,68,0.00,,,0.06,VWS V14.01,2013-06-11 22:03:00,
2013-06-11 18:08:00,74.3,62.6,29.67,West,269,13.0,13.0,67,0.00,,,0.06,VWS V14.01,2013-06-11 22:08:00,
2013-06-11 18:13:00,74.5,61.5,29.67,West,261,8.0,14.0,64,0.00,,,0.06,VWS V14.01,2013-06-11 22:13:00,
2013-06-11 18:15:00,74.6,62.1,29.67,West,275,5.0,14.0,65,0.00,,,0.06,VWS V14.01,2013-06-11 22:15:00,
2013-06-11 18:18:00,74.6,61.6,29.67,SW,228,4.0,12.0,64,0.00,,,0.06,VWS V14.01,2013-06-11 22:18:00,
2013-06-11 18:23:00,75.2,61.8,29.67,SE,138,6.0,15.0,63,0.00,,,0.06,VWS V14.01,2013-06-11 22:23:00,
2013-06-11 18:28:00,75.5,61.6,29.67,WNW,291,8.0,16.0,62,0.00,,,0.06,VWS V14.01,2013-06-11 22:28:00,
2013-06-11 18:30:00,75.5,61.1,29.67,West,270,4.0,16.0,61,0.00,,,0.06,VWS V14.01,2013-06-11 22:30:00,
2013-06-11 18:33:00,75.7,61.3,29.67,West,266,6.0,12.0,61,0.00,,,0.06,VWS V14.01,2013-06-11 22:33:00,
2013-06-11 18:38:00,75.5,61.6,29.67,West,269,9.0,14.0,62,0.00,,,0.06,VWS V14.01,2013-06-11 22:38:00,
2013-06-11 18:43:00,75.3,61.4,29.67,West,259,3.0,14.0,62,0.00,,,0.06,VWS V14.01,2013-06-11 22:43:00,
2013-06-11 18:45:00,75.2,61.8,29.67,WNW,286,7.0,14.0,63,0.00,,,0.06,VWS V14.01,2013-06-11 22:45:00,
2013-06-11 18:48:00,75.0,61.6,29.67,West,274,1.0,13.0,63,0.00,,,0.06,VWS V14.01,2013-06-11 22:48:00,
2013-06-11 18:53:00,74.6,61.6,29.67,WNW,290,5.0,13.0,64,0.00,,,0.06,VWS V14.01,2013-06-11 22:53:00,
2013-06-11 18:58:00,74.5,61.5,29.67,West,281,7.0,13.0,64,0.00,,,0.06,VWS V14.01,2013-06-11 22:58:00,
2013-06-11 19:00:00,74.3,61.3,29.68,West,274,8.0,13.0,64,0.00,,,0.06,VWS V14.01,2013-06-11 23:00:00,
2013-06-11 19:03:00,74.3,61.3,29.68,West,280,11.0,11.0,64,0.00,,,0.06,VWS V14.01,2013-06-11 23:03:00,
2013-06-11 19:08:00,74.1,60.7,29.68,South,188,8.0,14.0,63,0.00,,,0.06,VWS V14.01,2013-06-11 23:08:00,
2013-06-11 19:13:00,73.9,60.1,29.68,West,277,12.0,14.0,62,0.00,,,0.06,VWS V14.01,2013-06-11 23:13:00,
2013-06-11 19:15:00,73.9,60.1,29.69,NW,319,9.0,18.0,62,0.00,,,0.06,VWS V14.01,2013-06-11 23:15:00,
2013-06-11 19:18:00,73.9,60.5,29.69,West,268,6.0,15.0,63,0.00,,,0.06,VWS V14.01,2013-06-11 23:18:00,
2013-06-11 19:23:00,73.4,61.4,29.69,WSW,243,10.0,15.0,66,0.00,,,0.06,VWS V14.01,2013-06-11 23:23:00,
2013-06-11 19:28:00,71.9,62.4,29.69,West,269,6.0,15.0,72,0.00,,,0.06,VWS V14.01,2013-06-11 23:28:00,
2013-06-11 19:30:00,71.5,62.4,29.70,SW,233,8.0,15.0,73,0.00,,,0.06,VWS V14.01,2013-06-11 23:30:00,
2013-06-11 19:33:00,70.5,62.2,29.70,West,281,4.0,22.0,75,0.00,,,0.06,VWS V14.01,2013-06-11 23:33:00,
2013-06-11 19:38:00,69.8,62.3,29.70,West,272,5.0,22.0,77,0.00,,,0.06,VWS V14.01,2013-06-11 23:38:00,
2013-06-11 19:43:00,69.5,62.0,29.70,West,276,6.0,22.0,77,0.00,,,0.06,VWS V14.01,2013-06-11 23:43:00,
2013-06-11 19:45:00,69.3,61.8,29.70,West,275,5.0,22.0,77,0.00,,,0.06,VWS V14.01,2013-06-11 23:45:00,
2013-06-11 19:48:00,69.3,61.8,29.70,West,261,6.0,12.0,77,0.00,,,0.06,VWS V14.01,2013-06-11 23:48:00,
2013-06-11 19:53:00,69.3,61.8,29.70,SW,230,5.0,12.0,77,0.00,,,0.06,VWS V14.01,2013-06-11 23:53:00,
2013-06-11 19:58:00,69.3,61.4,29.70,West,273,7.0,13.0,76,0.00,,,0.06,VWS V14.01,2013-06-11 23:58:00,
2013-06-11 20:00:00,69.3,61.4,29.71,WSW,248,7.0,13.0,76,0.00,,,0.06,VWS V14.01,2013-06-12 00:00:00,
2013-06-11 20:03:00,69.5,61.2,29.71,WSW,245,8.0,11.0,75,0.00,,,0.06,VWS V14.01,2013-06-12 00:03:00,
2013-06-11 20:08:00,69.5,60.9,29.71,West,279,5.0,11.0,74,0.00,,,0.06,VWS V14.01,2013-06-12 00:08:00,
2013-06-11 20:13:00,69.5,60.9,29.71,West,270,0.0,11.0,74,0.00,,,0.06,VWS V14.01,2013-06-12 00:13:00,
2013-06-11 20:15:00,69.5,60.9,29.71,West,261,6.0,11.0,74,0.00,,,0.06,VWS V14.01,2013-06-12 00:15:00,
2013-06-11 20:18:00,69.5,60.9,29.71,WSW,256,6.0,11.0,74,0.00,,,0.06,VWS V14.01,2013-06-12 00:18:00,
2013-06-11 20:23:00,69.5,60.5,29.71,WSW,240,6.0,20.0,73,0.00,,,0.06,VWS V14.01,2013-06-12 00:23:00,
2013-06-11 20:28:00,69.5,60.5,29.71,West,279,0.0,20.0,73,0.00,,,0.06,VWS V14.01,2013-06-12 00:28:00,
2013-06-11 20:30:00,69.5,60.5,29.72,West,279,0.0,20.0,73,0.00,,,0.06,VWS V14.01,2013-06-12 00:30:00,
2013-06-11 20:33:00,69.3,60.7,29.72,West,269,3.0,7.0,74,0.00,,,0.06,VWS V14.01,2013-06-12 00:33:00,
2013-06-11 20:38:00,69.2,60.6,29.72,WSW,257,2.0,7.0,74,0.00,,,0.06,VWS V14.01,2013-06-12 00:38:00,
2013-06-11 20:43:00,69.0,60.4,29.72,West,281,0.0,7.0,74,0.00,,,0.06,VWS V14.01,2013-06-12 00:43:00,
2013-06-11 20:45:00,69.0,60.4,29.72,WNW,291,5.0,8.0,74,0.00,,,0.06,VWS V14.01,2013-06-12 00:45:00,
2013-06-11 20:48:00,69.0,60.0,29.72,West,273,5.0,7.0,73,0.00,,,0.06,VWS V14.01,2013-06-12 00:48:00,
2013-06-11 20:53:00,69.0,60.0,29.72,WNW,284,6.0,16.0,73,0.00,,,0.06,VWS V14.01,2013-06-12 00:53:00,
2013-06-11 20:58:00,69.0,59.2,29.72,West,273,2.0,16.0,71,0.00,,,0.06,VWS V14.01,2013-06-12 00:58:00,
2013-06-11 21:00:00,69.0,59.2,29.73,West,259,14.0,16.0,71,0.00,,,0.06,VWS V14.01,2013-06-12 01:00:00,
2013-06-11 21:03:00,69.2,59.0,29.73,WSW,248,0.0,15.0,70,0.00,,,0.06,VWS V14.01,2013-06-12 01:03:00,
2013-06-11 21:08:00,69.2,58.6,29.73,WNW,291,5.0,15.0,69,0.00,,,0.06,VWS V14.01,2013-06-12 01:08:00,
2013-06-11 21:13:00,69.3,58.3,29.73,West,271,5.0,15.0,68,0.00,,,0.06,VWS V14.01,2013-06-12 01:13:00,
2013-06-11 21:15:00,69.3,58.3,29.73,SW,235,8.0,15.0,68,0.00,,,0.06,VWS V14.01,2013-06-12 01:15:00,
2013-06-11 21:18:00,69.3,58.3,29.73,WSW,244,7.0,11.0,68,0.00,,,0.06,VWS V14.01,2013-06-12 01:18:00,
2013-06-11 21:23:00,69.3,58.3,29.73,West,278,10.0,13.0,68,0.00,,,0.06,VWS V14.01,2013-06-12 01:23:00,
2013-06-11 21:28:00,69.3,58.3,29.73,West,275,5.0,13.0,68,0.00,,,0.06,VWS V14.01,2013-06-12 01:28:00,
2013-06-11 21:30:00,69.3,58.3,29.73,West,278,5.0,13.0,68,0.00,,,0.06,VWS V14.01,2013-06-12 01:30:00,
2013-06-11 21:33:00,69.2,58.2,29.73,West,275,4.0,9.0,68,0.00,,,0.06,VWS V14.01,2013-06-12 01:33:00,
2013-06-11 21:38:00,69.2,58.2,29.73,West,273,7.0,11.0,68,0.00,,,0.06,VWS V14.01,2013-06-12 01:38:00,
2013-06-11 21:43:00,69.3,58.3,29.73,WSW,249,6.0,11.0,68,0.00,,,0.06,VWS V14.01,2013-06-12 01:43:00,
2013-06-11 21:45:00,69.3,58.3,29.74,WSW,257,7.0,11.0,68,0.00,,,0.06,VWS V14.01,2013-06-12 01:45:00,
2013-06-11 21:48:00,69.3,58.3,29.74,SSW,206,4.0,10.0,68,0.00,,,0.06,VWS V14.01,2013-06-12 01:48:00,
2013-06-11 21:53:00,69.3,57.9,29.74,West,259,6.0,11.0,67,0.00,,,0.06,VWS V14.01,2013-06-12 01:53:00,
2013-06-11 21:58:00,69.5,58.1,29.74,West,276,6.0,11.0,67,0.00,,,0.06,VWS V14.01,2013-06-12 01:58:00,
2013-06-11 22:00:00,69.5,58.1,29.75,WSW,246,5.0,11.0,67,0.00,,,0.06,VWS V14.01,2013-06-12 02:00:00,
2013-06-11 22:03:00,69.5,58.1,29.75,West,277,8.0,10.0,67,0.00,,,0.06,VWS V14.01,2013-06-12 02:03:00,
2013-06-11 22:08:00,69.7,58.3,29.75,South,177,4.0,11.0,67,0.00,,,0.06,VWS V14.01,2013-06-12 02:08:00,
2013-06-11 22:13:00,69.7,58.3,29.75,WSW,238,2.0,11.0,67,0.00,,,0.06,VWS V14.01,2013-06-12 02:13:00,
2013-06-11 22:15:00,69.7,58.3,29.75,West,267,5.0,11.0,67,0.00,,,0.06,VWS V14.01,2013-06-12 02:15:00,
2013-06-11 22:18:00,69.5,58.5,29.75,West,279,0.0,7.0,68,0.00,,,0.06,VWS V14.01,2013-06-12 02:18:00,
2013-06-11 22:23:00,69.5,58.5,29.75,WSW,254,0.0,10.0,68,0.00,,,0.06,VWS V14.01,2013-06-12 02:23:00,
2013-06-11 22:28:00,69.3,58.7,29.75,WSW,250,5.0,10.0,69,0.00,,,0.06,VWS V14.01,2013-06-12 02:28:00,
2013-06-11 22:30:00,69.3,58.7,29.75,WSW,252,0.0,10.0,69,0.00,,,0.06,VWS V14.01,2013-06-12 02:30:00,
2013-06-11 22:33:00,69.2,58.6,29.75,West,263,0.0,5.0,69,0.00,,,0.06,VWS V14.01,2013-06-12 02:33:00,
2013-06-11 22:38:00,69.0,58.8,29.75,WSW,237,5.0,6.0,70,0.00,,,0.06,VWS V14.01,2013-06-12 02:38:00,
2013-06-11 22:43:00,69.0,58.8,29.75,West,278,6.0,7.0,70,0.00,,,0.06,VWS V14.01,2013-06-12 02:43:00,
2013-06-11 22:45:00,68.8,58.6,29.75,West,266,6.0,9.0,70,0.00,,,0.06,VWS V14.01,2013-06-12 02:45:00,
2013-06-11 22:48:00,68.8,58.6,29.75,WSW,248,5.0,7.0,70,0.00,,,0.06,VWS V14.01,2013-06-12 02:48:00,
2013-06-11 22:53:00,68.8,58.6,29.75,SW,233,9.0,10.0,70,0.00,,,0.06,VWS V14.01,2013-06-12 02:53:00,
2013-06-11 22:58:00,68.8,58.2,29.75,West,275,8.0,12.0,69,0.00,,,0.06,VWS V14.01,2013-06-12 02:58:00,
2013-06-11 23:00:00,68.8,58.2,29.75,West,273,7.0,12.0,69,0.00,,,0.06,VWS V14.01,2013-06-12 03:00:00,
2013-06-11 23:03:00,68.8,58.2,29.75,WNW,286,0.0,10.0,69,0.00,,,0.06,VWS V14.01,2013-06-12 03:03:00,
2013-06-11 23:08:00,68.7,58.1,29.75,West,262,7.0,10.0,69,0.00,,,0.06,VWS V14.01,2013-06-12 03:08:00,
2013-06-11 23:13:00,68.5,57.9,29.75,West,275,0.0,10.0,69,0.00,,,0.06,VWS V14.01,2013-06-12 03:13:00,
2013-06-11 23:15:00,68.5,58.3,29.75,West,274,0.0,10.0,70,0.00,,,0.06,VWS V14.01,2013-06-12 03:15:00,
2013-06-11 23:18:00,68.3,58.2,29.75,West,277,0.0,6.0,70,0.00,,,0.06,VWS V14.01,2013-06-12 03:18:00,
2013-06-11 23:23:00,68.2,58.0,29.75,West,266,0.0,8.0,70,0.00,,,0.06,VWS V14.01,2013-06-12 03:23:00,
2013-06-11 23:28:00,68.2,58.0,29.75,WSW,257,0.0,8.0,70,0.00,,,0.06,VWS V14.01,2013-06-12 03:28:00,
2013-06-11 23:30:00,68.2,58.0,29.75,WSW,258,0.0,8.0,70,0.00,,,0.06,VWS V14.01,2013-06-12 03:30:00,
2013-06-11 23:33:00,68.2,58.0,29.75,WSW,258,0.0,0.0,70,0.00,,,0.06,VWS V14.01,2013-06-12 03:33:00,
2013-06-11 23:38:00,68.0,58.3,29.75,WSW,258,0.0,1.0,71,0.00,,,0.06,VWS V14.01,2013-06-12 03:38:00,
2013-06-11 23:43:00,67.8,58.1,29.75,WNW,284,0.0,5.0,71,0.00,,,0.06,VWS V14.01,2013-06-12 03:43:00,
2013-06-11 23:45:00,67.8,58.1,29.75,WNW,284,0.0,5.0,71,0.00,,,0.06,VWS V14.01,2013-06-12 03:45:00,
2013-06-11 23:48:00,67.8,58.5,29.75,WNW,284,0.0,1.0,72,0.00,,,0.06,VWS V14.01,2013-06-12 03:48:00,
2013-06-11 23:53:00,67.7,58.4,29.75,West,277,4.0,5.0,72,0.00,,,0.06,VWS V14.01,2013-06-12 03:53:00,
2013-06-11 23:58:00,67.5,58.5,29.75,West,277,0.0,5.0,73,0.00,,,0.06,VWS V14.01,2013-06-12 03:58:00,